Terminal Aerodrome Forecast
Issued by NWS Wilmington, OH

Current Version | Previous Version | Graphics & Text | Print | Product List | Glossary On
Versions: 1 2 3 4 5 6 7 8 9 10 11 12 13 14 15 16 17 18 19 20 21
169
FTUS41 KILN 281519 AAA
TAFCMH
TAF AMD
KCMH 281519Z 2815/0112 14006KT P6SM -SHRA SCT025 OVC050
     FM281800 18009KT P6SM -SHRA VCTS OVC012CB
     FM282200 19014KT P6SM VCSH OVC012=

USA.gov is the U.S. government's official web portal to all federal, state and local government web resources and services.